EmailTwitter


Observations de surface / Québec / LFRB

Régions: Québec | Canada | États-Unis | Europe | France | UK | Elsewhere
Station
Affichage
Infos & localisation pour LFRB | Aide pour décoder les METARs

Observations prises le 2017-02-24 à 10H00 UTC à BREST/GUIPAVAS, FR (LFRB)

Etat du ciel: quelques nuages.

Température: 10.0 Celsius

Point de rosée: 4.0 Celsius

Humidité relative: 66%

Facteur vent: 8.

Vents: Nord-ouest à 15 km/h ou 8 noeuds.

Pression au niveau moyen de la mer: 102.10 kilopascals.

Visibilité horizontale: 6.21 milles terrestres ou 9.94 kilomètres.

Observation METAR:

LFRB 241000Z AUTO 33008KT 300V360 9999 FEW031 10/04 Q1021 NOSIG=